Terminal Aerodrome Forecast
Issued by NWS Cleveland, OH

Current Version | Previous Version | Text Only | Print | Product List | Glossary On
Versions: 1 2 3 4 5 6 7 8 9 10 11 12 13 14 15 16 17 18 19 20 21 22 23 24 25 26 27 28 29 30
000
FTUS41 KCLE 270500
TAFCLE
TAF
KCLE 270527Z 2706/2812 22006KT P6SM OVC040
     FM270700 32006KT 6SM -SHSN SCT008 OVC030
      TEMPO 2707/2710 2SM -SHSN BKN008 OVC012
     FM271400 33010KT P6SM OVC025
     FM271900 29010KT P6SM OVC035
     FM272200 29010KT 4SM -SHSN OVC015
     FM280100 28010KT 6SM -SHSN SCT008 OVC012=

USA.gov is the U.S. government's official web portal to all federal, state and local government web resources and services.